createdAt,value
2019-04-04T00:00:54.313Z,1013.17
2019-04-04T00:01:54.309Z,1013.17
2019-04-04T00:02:54.296Z,1013.19
2019-04-04T00:03:54.291Z,1013.19
2019-04-04T00:04:54.278Z,1013.16
2019-04-04T00:05:55.065Z,1013.18
2019-04-04T00:06:54.262Z,1013.15
2019-04-04T00:07:54.255Z,1013.19
2019-04-04T00:08:54.248Z,1013.15
2019-04-04T00:09:54.238Z,1013.14
2019-04-04T00:10:54.225Z,1013.13
2019-04-04T00:11:54.225Z,1013.16
2019-04-04T00:12:54.212Z,1013.17
2019-04-04T00:13:54.204Z,1013.11
2019-04-04T00:14:54.190Z,1013.13
2019-04-04T00:15:54.187Z,1013.17
2019-04-04T00:16:54.175Z,1013.17
2019-04-04T00:17:54.331Z,1013.16
2019-04-04T00:18:54.154Z,1013.14
2019-04-04T00:19:54.149Z,1013.17
2019-04-04T00:20:54.137Z,1013.13
2019-04-04T00:21:54.131Z,1013.13
2019-04-04T00:22:54.120Z,1013.16
2019-04-04T00:23:54.114Z,1013.16
2019-04-04T00:24:54.105Z,1013.18
2019-04-04T00:25:54.096Z,1013.16
2019-04-04T00:26:54.083Z,1013.15
2019-04-04T00:27:54.078Z,1013.18
2019-04-04T00:28:54.068Z,1013.18
2019-04-04T00:29:54.059Z,1013.14
2019-04-04T00:30:54.051Z,1013.2
2019-04-04T00:31:54.038Z,1013.13
2019-04-04T00:32:54.032Z,1013.16
2019-04-04T00:33:55.816Z,1013.2
2019-04-04T00:34:54.015Z,1013.16
2019-04-04T00:35:54.002Z,1013.15
2019-04-04T00:36:53.996Z,1013.17
2019-04-04T00:37:53.982Z,1013.15
2019-04-04T00:38:53.979Z,1013.14
2019-04-04T00:39:53.965Z,1013.11
2019-04-04T00:40:53.981Z,1013.12
2019-04-04T00:41:53.951Z,1013.08
2019-04-04T00:42:53.937Z,1013.08
2019-04-04T00:43:53.928Z,1013.12
2019-04-04T00:44:55.718Z,1013.13
2019-04-04T00:45:53.915Z,1013.09
2019-04-04T00:46:53.906Z,1013.1
2019-04-04T00:47:53.892Z,1013.14
2019-04-04T00:48:53.888Z,1013.14
2019-04-04T00:49:53.874Z,1013.13
2019-04-04T00:50:53.871Z,1013.12
2019-04-04T00:51:53.856Z,1013.13
2019-04-04T00:52:53.854Z,1013.11
2019-04-04T00:53:53.838Z,1013.1
2019-04-04T00:54:53.831Z,1013.09
2019-04-04T00:55:53.819Z,1013.09
2019-04-04T00:56:53.810Z,1013.1
2019-04-04T00:57:53.801Z,1013.09
2019-04-04T00:58:53.795Z,1013.07
2019-04-04T00:59:54.011Z,1013.04
2019-04-04T01:00:54.853Z,1013.02
2019-04-04T01:01:55.019Z,1013.01
2019-04-04T01:02:53.755Z,1013.04
2019-04-04T01:03:53.773Z,1012.98
2019-04-04T01:04:53.736Z,1013
2019-04-04T01:05:53.726Z,1013
2019-04-04T01:06:53.721Z,1013.01
2019-04-04T01:07:53.708Z,1012.94
2019-04-04T01:08:53.704Z,1012.99
2019-04-04T01:09:53.690Z,1012.99
2019-04-04T01:10:53.684Z,1012.98
2019-04-04T01:11:53.699Z,1013.01
2019-04-04T01:12:53.664Z,1012.93
2019-04-04T01:13:53.651Z,1012.98
2019-04-04T01:14:53.647Z,1012.94
2019-04-04T01:15:53.638Z,1012.96
2019-04-04T01:16:53.623Z,1012.95
2019-04-04T01:17:53.614Z,1012.94
2019-04-04T01:18:53.609Z,1012.9
2019-04-04T01:19:53.596Z,1012.9
2019-04-04T01:20:53.592Z,1012.93
2019-04-04T01:21:53.962Z,1012.95
2019-04-04T01:22:54.023Z,1012.95
2019-04-04T01:23:53.557Z,1012.94
2019-04-04T01:24:53.553Z,1012.94
2019-04-04T01:25:53.538Z,1012.98
2019-04-04T01:26:53.534Z,1012.97
2019-04-04T01:27:53.519Z,1013
2019-04-04T01:28:53.511Z,1012.98
2019-04-04T01:29:53.501Z,1013.01
2019-04-04T01:30:53.495Z,1013.01
2019-04-04T01:31:53.482Z,1013.04
2019-04-04T01:32:53.479Z,1013.03
2019-04-04T01:33:53.467Z,1013.06
2019-04-04T01:34:53.457Z,1013.08
2019-04-04T01:35:53.934Z,1013.01
2019-04-04T01:36:55.989Z,1013.05
2019-04-04T01:37:53.425Z,1013.04
2019-04-04T01:38:53.418Z,1013.03
2019-04-04T01:39:53.405Z,1013.06
2019-04-04T01:40:54.966Z,1013.05
2019-04-04T01:41:53.386Z,1013.11
2019-04-04T01:42:53.380Z,1013.1
2019-04-04T01:44:04.486Z,1013.09
2019-04-04T01:44:53.358Z,1013.13
2019-04-04T01:45:53.349Z,1013.16
2019-04-04T01:46:53.342Z,1013.13
2019-04-04T01:47:53.332Z,1013.15
2019-04-04T01:48:53.319Z,1013.15
2019-04-04T01:49:53.308Z,1013.16
2019-04-04T01:50:54.156Z,1013.17
2019-04-04T01:51:56.690Z,1013.2
2019-04-04T01:52:53.279Z,1013.19
2019-04-04T01:53:53.274Z,1013.19
2019-04-04T01:54:53.260Z,1013.19
2019-04-04T01:55:53.254Z,1013.18
2019-04-04T01:56:53.240Z,1013.19
2019-04-04T01:57:53.231Z,1013.19
2019-04-04T01:58:53.225Z,1013.19
2019-04-04T01:59:53.211Z,1013.21
2019-04-04T02:00:53.200Z,1013.18
2019-04-04T02:01:53.190Z,1013.22
2019-04-04T02:02:53.185Z,1013.19
2019-04-04T02:03:53.621Z,1013.18
2019-04-04T02:04:53.888Z,1013.22
2019-04-04T02:05:53.152Z,1013.19
2019-04-04T02:06:53.142Z,1013.21
2019-04-04T02:07:53.135Z,1013.21
2019-04-04T02:08:53.121Z,1013.2
2019-04-04T02:09:53.116Z,1013.21
2019-04-04T02:10:53.102Z,1013.24
2019-04-04T02:11:53.096Z,1013.21
2019-04-04T02:12:53.083Z,1013.22
2019-04-04T02:13:53.125Z,1013.23
2019-04-04T02:14:53.063Z,1013.22
2019-04-04T02:15:53.056Z,1013.21
2019-04-04T02:16:53.052Z,1013.22
2019-04-04T02:17:53.455Z,1013.2
2019-04-04T02:18:53.742Z,1013.2
2019-04-04T02:19:55.467Z,1013.2
2019-04-04T02:20:53.007Z,1013.21
2019-04-04T02:21:53.001Z,1013.2
2019-04-04T02:22:52.982Z,1013.22
2019-04-04T02:23:52.976Z,1013.21
2019-04-04T02:24:52.962Z,1013.2
2019-04-04T02:25:52.956Z,1013.23
2019-04-04T02:26:52.942Z,1013.26
2019-04-04T02:27:52.936Z,1013.23
2019-04-04T02:28:52.922Z,1013.23
2019-04-04T02:29:52.918Z,1013.23
2019-04-04T02:30:52.906Z,1013.23
2019-04-04T02:31:53.489Z,1013.3
2019-04-04T02:32:52.888Z,1013.3
2019-04-04T02:33:52.882Z,1013.33
2019-04-04T02:34:52.862Z,1013.39
2019-04-04T02:35:52.852Z,1013.4
2019-04-04T02:36:52.845Z,1013.46
2019-04-04T02:37:55.121Z,1013.47
2019-04-04T02:38:52.826Z,1013.53
2019-04-04T02:39:52.811Z,1013.58
2019-04-04T02:40:52.808Z,1013.58
2019-04-04T02:41:52.793Z,1013.58
2019-04-04T02:42:55.126Z,1013.58
2019-04-04T02:43:52.771Z,1013.56
2019-04-04T02:44:52.764Z,1013.59
2019-04-04T02:45:52.754Z,1013.58
2019-04-04T02:46:52.745Z,1013.62
2019-04-04T02:47:52.728Z,1013.62
2019-04-04T02:48:53.508Z,1013.61
2019-04-04T02:49:52.719Z,1013.64
2019-04-04T02:50:52.699Z,1013.6
2019-04-04T02:51:52.687Z,1013.65
2019-04-04T02:52:52.685Z,1013.62
2019-04-04T02:53:53.093Z,1013.61
2019-04-04T02:54:56.945Z,1013.56
2019-04-04T02:55:52.653Z,1013.54
2019-04-04T02:56:52.641Z,1013.5
2019-04-04T02:57:52.627Z,1013.47
2019-04-04T02:58:52.623Z,1013.44
2019-04-04T02:59:53.256Z,1013.47
2019-04-04T03:00:52.603Z,1013.52
2019-04-04T03:01:52.587Z,1013.51
2019-04-04T03:02:52.573Z,1013.53
2019-04-04T03:03:52.574Z,1013.52
2019-04-04T03:04:52.556Z,1013.54
2019-04-04T03:05:52.546Z,1013.6
2019-04-04T03:06:57.045Z,1013.6
2019-04-04T03:07:52.522Z,1013.65
2019-04-04T03:08:52.578Z,1013.7
2019-04-04T03:09:52.523Z,1013.72
2019-04-04T03:10:52.493Z,1013.72
2019-04-04T03:11:53.895Z,1013.73
2019-04-04T03:12:52.472Z,1013.75
2019-04-04T03:13:52.461Z,1013.73
2019-04-04T03:14:52.447Z,1013.73
2019-04-04T03:15:52.447Z,1013.7
2019-04-04T03:16:56.216Z,1013.7
2019-04-04T03:17:52.419Z,1013.65
2019-04-04T03:18:52.406Z,1013.6
2019-04-04T03:19:52.404Z,1013.66
2019-04-04T03:20:52.397Z,1013.65
2019-04-04T03:21:54.660Z,1013.71
2019-04-04T03:22:52.362Z,1013.73
2019-04-04T03:23:52.364Z,1013.72
2019-04-04T03:24:52.345Z,1013.69
2019-04-04T03:25:52.351Z,1013.74
2019-04-04T03:26:53.376Z,1013.74
2019-04-04T03:27:52.314Z,1013.77
2019-04-04T03:28:52.301Z,1013.72
2019-04-04T03:29:52.290Z,1013.72
2019-04-04T03:31:01.227Z,1013.7
2019-04-04T03:31:52.264Z,1013.73
2019-04-04T03:32:54.669Z,1013.72
2019-04-04T03:33:52.257Z,1013.77
2019-04-04T03:34:52.243Z,1013.76
2019-04-04T03:35:52.221Z,1013.78
2019-04-04T03:36:52.210Z,1013.79
2019-04-04T03:37:52.200Z,1013.8
2019-04-04T03:38:52.194Z,1013.79
2019-04-04T03:39:53.359Z,1013.81
2019-04-04T03:40:52.173Z,1013.76
2019-04-04T03:41:52.182Z,1013.75
2019-04-04T03:42:52.159Z,1013.73
2019-04-04T03:43:52.135Z,1013.78
2019-04-04T03:44:53.243Z,1013.78
2019-04-04T03:45:52.119Z,1013.81
2019-04-04T03:46:52.106Z,1013.85
2019-04-04T03:47:52.090Z,1013.83
2019-04-04T03:48:52.084Z,1013.84
2019-04-04T03:49:56.317Z,1013.83
2019-04-04T03:50:52.063Z,1013.85
2019-04-04T03:51:52.048Z,1013.84
2019-04-04T03:52:52.037Z,1013.87
2019-04-04T03:53:52.026Z,1013.9
2019-04-04T03:54:54.964Z,1013.94
2019-04-04T03:55:52.027Z,1013.95
2019-04-04T03:56:51.991Z,1013.96
2019-04-04T03:57:55.060Z,1013.94
2019-04-04T03:58:51.976Z,1013.94
2019-04-04T03:59:51.964Z,1013.97
2019-04-04T04:00:51.950Z,1013.95
2019-04-04T04:01:51.942Z,1013.99
2019-04-04T04:02:51.930Z,1014.03
2019-04-04T04:03:54.561Z,1014.02
2019-04-04T04:04:51.910Z,1014.01
2019-04-04T04:05:51.895Z,1014
2019-04-04T04:06:51.888Z,1013.97
2019-04-04T04:07:51.877Z,1013.96
2019-04-04T04:08:54.630Z,1013.96
2019-04-04T04:09:51.852Z,1013.98
2019-04-04T04:10:51.858Z,1013.98
2019-04-04T04:11:51.832Z,1013.96
2019-04-04T04:12:51.822Z,1013.98
2019-04-04T04:13:51.806Z,1013.96
2019-04-04T04:14:54.724Z,1013.95
2019-04-04T04:15:51.788Z,1013.98
2019-04-04T04:16:51.772Z,1013.94
2019-04-04T04:17:51.767Z,1013.96
2019-04-04T04:18:54.390Z,1013.94
2019-04-04T04:19:51.742Z,1013.88
2019-04-04T04:20:51.728Z,1013.93
2019-04-04T04:21:51.721Z,1013.85
2019-04-04T04:22:51.747Z,1013.88
2019-04-04T04:23:56.132Z,1013.87
2019-04-04T04:24:51.688Z,1013.88
2019-04-04T04:25:51.677Z,1013.87
2019-04-04T04:26:51.660Z,1013.85
2019-04-04T04:27:51.650Z,1013.83
2019-04-04T04:28:53.065Z,1013.86
2019-04-04T04:29:51.633Z,1013.89
2019-04-04T04:30:51.618Z,1013.86
2019-04-04T04:31:51.612Z,1013.88
2019-04-04T04:32:55.523Z,1013.88
2019-04-04T04:33:51.588Z,1013.87
2019-04-04T04:34:51.581Z,1013.88
2019-04-04T04:35:51.566Z,1013.86
2019-04-04T04:36:51.551Z,1013.82
2019-04-04T04:37:53.272Z,1013.79
2019-04-04T04:38:51.535Z,1013.77
2019-04-04T04:39:51.538Z,1013.73
2019-04-04T04:40:51.511Z,1013.69
2019-04-04T04:41:54.104Z,1013.69
2019-04-04T04:42:51.484Z,1013.69
2019-04-04T04:43:51.475Z,1013.71
2019-04-04T04:44:51.466Z,1013.71
2019-04-04T04:45:51.456Z,1013.73
2019-04-04T04:46:51.448Z,1013.72
2019-04-04T04:47:55.838Z,1013.7
2019-04-04T04:48:51.422Z,1013.67
2019-04-04T04:49:51.497Z,1013.66
2019-04-04T04:50:51.402Z,1013.6
2019-04-04T04:51:51.396Z,1013.63
2019-04-04T04:52:51.377Z,1013.56
2019-04-04T04:53:51.416Z,1013.57
2019-04-04T04:54:52.268Z,1013.51
2019-04-04T04:55:51.342Z,1013.49
2019-04-04T04:56:51.333Z,1013.47
2019-04-04T04:57:51.325Z,1013.38
2019-04-04T04:58:51.338Z,1013.3
2019-04-04T04:59:51.295Z,1013.16
2019-04-04T05:00:51.292Z,1013.1
2019-04-04T05:01:51.399Z,1013.05
2019-04-04T05:02:53.058Z,1012.92
2019-04-04T05:03:51.251Z,1012.82
2019-04-04T05:04:51.247Z,1012.72
2019-04-04T05:05:51.233Z,1012.62
2019-04-04T05:06:51.233Z,1012.55
2019-04-04T05:07:51.209Z,1012.52
2019-04-04T05:08:51.203Z,1012.39
2019-04-04T05:09:51.188Z,1012.3
2019-04-04T05:10:51.181Z,1012.18
2019-04-04T05:11:51.193Z,1012.06
2019-04-04T05:12:53.024Z,1011.98
2019-04-04T05:13:51.147Z,1011.87
2019-04-04T05:14:51.141Z,1011.77
2019-04-04T05:15:51.134Z,1011.72
2019-04-04T05:16:51.118Z,1011.61
2019-04-04T05:17:51.107Z,1011.51
2019-04-04T05:18:51.105Z,1011.4
2019-04-04T05:19:51.094Z,1011.26
2019-04-04T05:20:51.093Z,1011.14
2019-04-04T05:21:51.071Z,1011.04
2019-04-04T05:22:51.067Z,1010.98
2019-04-04T05:23:51.055Z,1010.93
2019-04-04T05:25:06.682Z,1010.83
2019-04-04T05:25:54.085Z,1010.73
2019-04-04T05:26:51.053Z,1010.68
2019-04-04T05:27:51.020Z,1010.58
2019-04-04T05:28:51.012Z,1010.46
2019-04-04T05:29:51.004Z,1010.39
2019-04-04T05:30:51.007Z,1010.34
2019-04-04T05:31:50.992Z,1010.27
2019-04-04T05:32:52.399Z,1010.2
2019-04-04T05:33:50.973Z,1010.11
2019-04-04T05:34:50.965Z,1010.06
2019-04-04T05:35:50.961Z,1009.97
2019-04-04T05:36:50.952Z,1009.91
2019-04-04T05:37:50.947Z,1009.84
2019-04-04T05:38:50.937Z,1009.74
2019-04-04T05:39:51.326Z,1009.67
2019-04-04T05:40:50.923Z,1009.63
2019-04-04T05:41:50.921Z,1009.56
2019-04-04T05:42:50.911Z,1009.49
2019-04-04T05:43:50.921Z,1009.38
2019-04-04T05:44:50.902Z,1009.35
2019-04-04T05:45:50.908Z,1009.28
2019-04-04T05:46:51.866Z,1009.14
2019-04-04T05:47:50.884Z,1009.04
2019-04-04T05:48:50.874Z,1008.94
2019-04-04T05:49:50.910Z,1008.9
2019-04-04T05:50:50.862Z,1008.88
2019-04-04T05:51:50.869Z,1008.87
2019-04-04T05:52:50.853Z,1008.74
2019-04-04T05:53:50.851Z,1008.64
2019-04-04T05:54:50.842Z,1008.54
2019-04-04T05:55:50.840Z,1008.44
2019-04-04T05:56:50.832Z,1008.29
2019-04-04T05:57:51.566Z,1008.2
2019-04-04T05:58:51.053Z,1008.13
2019-04-04T05:59:50.822Z,1008
2019-04-04T06:00:50.825Z,1007.91
2019-04-04T06:01:50.812Z,1007.91
2019-04-04T06:02:50.818Z,1007.88
2019-04-04T06:03:50.809Z,1007.82
2019-04-04T06:04:52.364Z,1007.71
2019-04-04T06:05:50.799Z,1007.66
2019-04-04T06:06:50.803Z,1007.57
2019-04-04T06:07:50.787Z,1007.56
2019-04-04T06:08:50.806Z,1007.52
2019-04-04T06:09:50.780Z,1007.44
2019-04-04T06:10:50.917Z,1007.37
2019-04-04T06:11:50.878Z,1007.3
2019-04-04T06:12:50.777Z,1007.21
2019-04-04T06:13:50.771Z,1007.15
2019-04-04T06:14:50.764Z,1007.05
2019-04-04T06:15:50.767Z,1006.96
2019-04-04T06:16:50.762Z,1006.85
2019-04-04T06:17:50.760Z,1006.77
2019-04-04T06:18:50.754Z,1006.71
2019-04-04T06:19:50.749Z,1006.66
2019-04-04T06:20:50.752Z,1006.59
2019-04-04T06:21:50.750Z,1006.48
2019-04-04T06:22:51.964Z,1006.37
2019-04-04T06:23:50.741Z,1006.23
2019-04-04T06:24:52.168Z,1006.15
2019-04-04T06:25:50.747Z,1006.06
2019-04-04T06:26:50.737Z,1005.99
2019-04-04T06:27:50.739Z,1005.86
2019-04-04T06:28:50.735Z,1005.81
2019-04-04T06:29:50.736Z,1005.75
2019-04-04T06:30:53.251Z,1005.66
2019-04-04T06:31:50.734Z,1005.57
2019-04-04T06:32:50.733Z,1005.48
2019-04-04T06:33:50.733Z,1005.48
2019-04-04T06:34:50.727Z,1005.39
2019-04-04T06:35:50.727Z,1005.33
2019-04-04T06:36:50.733Z,1005.29
2019-04-04T06:37:51.285Z,1005.18
2019-04-04T06:38:52.191Z,1005.12
2019-04-04T06:39:50.731Z,1005.11
2019-04-04T06:40:50.728Z,1005.14
2019-04-04T06:41:50.732Z,1005.07
2019-04-04T06:42:50.729Z,1004.95
2019-04-04T06:43:50.779Z,1004.99
2019-04-04T06:44:50.729Z,1005.03
2019-04-04T06:45:50.734Z,1005.03
2019-04-04T06:46:51.297Z,1004.94
2019-04-04T06:47:50.736Z,1004.89
2019-04-04T06:48:50.736Z,1004.76
2019-04-04T06:49:50.739Z,1004.8
2019-04-04T06:50:50.736Z,1004.75
2019-04-04T06:51:50.737Z,1004.71
2019-04-04T06:52:51.182Z,1004.69
2019-04-04T06:53:53.250Z,1004.63
2019-04-04T06:54:50.745Z,1004.64
2019-04-04T06:55:50.743Z,1004.53
2019-04-04T06:56:50.749Z,1004.53
2019-04-04T06:57:51.336Z,1004.54
2019-04-04T06:58:50.753Z,1004.53
2019-04-04T06:59:51.174Z,1004.56
2019-04-04T07:00:50.760Z,1004.66
2019-04-04T07:01:51.996Z,1004.68
2019-04-04T07:02:50.763Z,1004.7
2019-04-04T07:03:52.626Z,1004.79
2019-04-04T07:04:50.768Z,1004.84
2019-04-04T07:05:50.771Z,1004.88
2019-04-04T07:06:50.770Z,1004.9
2019-04-04T07:07:50.772Z,1004.9
2019-04-04T07:08:50.780Z,1004.94
2019-04-04T07:09:50.988Z,1004.82
2019-04-04T07:10:57.652Z,1004.86
2019-04-04T07:11:50.784Z,1004.8
2019-04-04T07:12:50.811Z,1004.77
2019-04-04T07:13:50.791Z,1004.82
2019-04-04T07:14:50.808Z,1004.94
2019-04-04T07:16:05.361Z,1004.9
2019-04-04T07:16:50.961Z,1004.86
2019-04-04T07:17:50.806Z,1004.98
2019-04-04T07:18:50.814Z,1005.04
2019-04-04T07:19:50.811Z,1004.93
2019-04-04T07:20:50.815Z,1004.85
2019-04-04T07:21:51.286Z,1004.89
2019-04-04T07:22:50.827Z,1004.85
2019-04-04T07:23:50.830Z,1004.73
2019-04-04T07:24:50.830Z,1004.6
2019-04-04T07:25:53.286Z,1004.53
2019-04-04T07:26:50.837Z,1004.42
2019-04-04T07:27:50.870Z,1004.34
2019-04-04T07:28:53.823Z,1004.14
2019-04-04T07:29:50.850Z,1004.01
2019-04-04T07:30:50.868Z,1003.86
2019-04-04T07:31:50.862Z,1003.62
2019-04-04T07:32:50.868Z,1003.45
2019-04-04T07:33:50.870Z,1003.38
2019-04-04T07:34:50.879Z,1003.37
2019-04-04T07:35:50.881Z,1003.18
2019-04-04T07:36:51.164Z,1003.08
2019-04-04T07:37:52.896Z,1003.09
2019-04-04T07:38:50.901Z,1002.91
2019-04-04T07:39:50.908Z,1003.17
2019-04-04T07:40:50.910Z,1003.14
2019-04-04T07:41:50.916Z,1003.14
2019-04-04T07:42:50.923Z,1003.3
2019-04-04T07:43:51.476Z,1003.1
2019-04-04T07:44:50.935Z,1003
2019-04-04T07:45:50.946Z,1002.97
2019-04-04T07:46:50.950Z,1003.26
2019-04-04T07:48:51.516Z,1003.57
2019-04-04T07:49:50.969Z,1003.42
2019-04-04T07:50:51.476Z,1003.4
2019-04-04T07:51:50.985Z,1003.41
2019-04-04T07:52:50.993Z,1003.56
2019-04-04T07:53:50.993Z,1003.64
2019-04-04T07:54:51.000Z,1003.77
2019-04-04T07:55:51.010Z,1003.89
2019-04-04T07:56:51.014Z,1004.02
2019-04-04T07:57:51.618Z,1004.13
2019-04-04T07:58:51.024Z,1004.31
2019-04-04T07:59:51.034Z,1004.17
2019-04-04T08:00:51.036Z,1004.19
2019-04-04T08:01:51.632Z,1004.28
2019-04-04T08:02:51.047Z,1004.27
2019-04-04T08:03:51.052Z,1004.27
2019-04-04T08:04:51.062Z,1004.43
2019-04-04T08:05:51.063Z,1004.61
2019-04-04T08:06:51.072Z,1004.44
2019-04-04T08:07:51.073Z,1004.41
2019-04-04T08:08:51.083Z,1004.6
2019-04-04T08:09:51.082Z,1005.07
2019-04-04T08:10:51.087Z,1005.15
2019-04-04T08:11:51.096Z,1005.17
2019-04-04T08:12:51.101Z,1005.02
2019-04-04T08:13:51.100Z,1004.88
2019-04-04T08:14:51.105Z,1004.68
2019-04-04T08:15:51.120Z,1004.58
2019-04-04T08:16:51.117Z,1004.5
2019-04-04T08:17:51.118Z,1004.69
2019-04-04T08:18:51.124Z,1005.1
2019-04-04T08:19:59.374Z,1005.7
2019-04-04T08:20:51.132Z,1006.29
2019-04-04T08:21:51.131Z,1006.72
2019-04-04T08:22:51.136Z,1007.02
2019-04-04T08:23:51.144Z,1007.3
2019-04-04T08:24:51.143Z,1007.58
2019-04-04T08:25:51.142Z,1007.82
2019-04-04T08:26:51.144Z,1007.96
2019-04-04T08:27:51.147Z,1008.27
2019-04-04T08:28:51.148Z,1008.36
2019-04-04T08:29:51.145Z,1008.48
2019-04-04T08:30:51.145Z,1008.57
2019-04-04T08:31:51.145Z,1008.7
2019-04-04T08:32:51.150Z,1008.91
2019-04-04T08:33:51.144Z,1008.99
2019-04-04T08:34:51.146Z,1009.08
2019-04-04T08:35:51.141Z,1009.22
2019-04-04T08:36:51.144Z,1009.33
2019-04-04T08:37:51.193Z,1009.4
2019-04-04T08:38:51.140Z,1009.53
2019-04-04T08:39:51.134Z,1009.6
2019-04-04T08:40:51.136Z,1009.66
2019-04-04T08:41:52.452Z,1009.64
2019-04-04T08:42:51.130Z,1009.69
2019-04-04T08:43:51.124Z,1009.69
2019-04-04T08:44:51.122Z,1009.69
2019-04-04T08:45:51.121Z,1009.71
2019-04-04T08:46:51.120Z,1009.7
2019-04-04T08:47:51.112Z,1009.68
2019-04-04T08:48:51.140Z,1009.71
2019-04-04T08:49:51.107Z,1009.65
2019-04-04T08:50:51.106Z,1009.64
2019-04-04T08:51:51.098Z,1009.7
2019-04-04T08:52:51.100Z,1009.71
2019-04-04T08:53:51.091Z,1009.78
2019-04-04T08:54:51.092Z,1009.84
2019-04-04T08:55:51.085Z,1009.9
2019-04-04T08:56:51.084Z,1009.97
2019-04-04T08:57:51.080Z,1010.02
2019-04-04T08:58:51.714Z,1010.04
2019-04-04T08:59:51.069Z,1010.05
2019-04-04T09:00:51.064Z,1009.95
2019-04-04T09:01:51.066Z,1009.97
2019-04-04T09:02:51.061Z,1009.94
2019-04-04T09:03:51.059Z,1009.87
2019-04-04T09:04:51.049Z,1009.87
2019-04-04T09:05:51.049Z,1009.86
2019-04-04T09:06:51.041Z,1009.85
2019-04-04T09:07:51.042Z,1009.84
2019-04-04T09:08:51.032Z,1009.89
2019-04-04T09:09:51.167Z,1009.9
2019-04-04T09:10:51.025Z,1009.87
2019-04-04T09:11:51.024Z,1009.88
2019-04-04T09:12:51.015Z,1009.87
2019-04-04T09:13:51.016Z,1009.93
2019-04-04T09:14:51.011Z,1009.92
2019-04-04T09:15:51.005Z,1009.95
2019-04-04T09:16:50.999Z,1009.96
2019-04-04T09:17:51.004Z,1010.01
2019-04-04T09:18:50.994Z,1009.92
2019-04-04T09:19:50.990Z,1009.9
2019-04-04T09:20:50.981Z,1009.88
2019-04-04T09:21:50.982Z,1009.88
2019-04-04T09:22:50.975Z,1009.97
2019-04-04T09:23:50.973Z,1009.98
2019-04-04T09:24:50.966Z,1009.97
2019-04-04T09:25:50.963Z,1010
2019-04-04T09:26:50.955Z,1009.96
2019-04-04T09:27:50.955Z,1009.97
2019-04-04T09:28:50.947Z,1009.97
2019-04-04T09:29:50.945Z,1009.91
2019-04-04T09:30:50.938Z,1009.88
2019-04-04T09:31:50.937Z,1009.88
2019-04-04T09:32:50.935Z,1009.88
2019-04-04T09:33:50.924Z,1009.9
2019-04-04T09:34:50.919Z,1009.91
2019-04-04T09:35:50.915Z,1009.94
2019-04-04T09:36:50.914Z,1009.92
2019-04-04T09:37:50.906Z,1009.9
2019-04-04T09:38:50.903Z,1009.89
2019-04-04T09:39:50.901Z,1009.93
2019-04-04T09:40:50.892Z,1009.88
2019-04-04T09:41:50.893Z,1009.86
2019-04-04T09:42:50.883Z,1009.81
2019-04-04T09:43:50.889Z,1009.76
2019-04-04T09:44:50.874Z,1009.73
2019-04-04T09:45:50.869Z,1009.69
2019-04-04T09:46:50.865Z,1009.69
2019-04-04T09:47:50.864Z,1009.61
2019-04-04T09:48:50.860Z,1009.63
2019-04-04T09:49:50.852Z,1009.65
2019-04-04T09:50:50.848Z,1009.63
2019-04-04T09:51:50.847Z,1009.58
2019-04-04T09:52:50.840Z,1009.62
2019-04-04T09:53:53.095Z,1009.56
2019-04-04T09:54:50.829Z,1009.51
2019-04-04T09:55:50.828Z,1009.53
2019-04-04T09:56:50.820Z,1009.5
2019-04-04T09:57:50.820Z,1009.53
2019-04-04T09:58:50.815Z,1009.49
2019-04-04T09:59:50.811Z,1009.5
2019-04-04T10:00:50.808Z,1009.52
2019-04-04T10:01:50.798Z,1009.48
2019-04-04T10:02:50.797Z,1009.51
2019-04-04T10:03:50.793Z,1009.47
2019-04-04T10:04:50.785Z,1009.44
2019-04-04T10:05:51.249Z,1009.35
2019-04-04T10:06:50.775Z,1009.34
2019-04-04T10:07:50.776Z,1009.33
2019-04-04T10:08:50.767Z,1009.29
2019-04-04T10:09:50.769Z,1009.24
2019-04-04T10:10:50.758Z,1009.27
2019-04-04T10:11:50.758Z,1009.19
2019-04-04T10:12:50.752Z,1009.18
2019-04-04T10:13:50.748Z,1009.16
2019-04-04T10:14:50.745Z,1009.14
2019-04-04T10:15:50.740Z,1009.13
2019-04-04T10:16:50.732Z,1009.15
2019-04-04T10:17:50.727Z,1009.09
2019-04-04T10:18:50.734Z,1009.08
2019-04-04T10:19:50.723Z,1009.13
2019-04-04T10:20:50.718Z,1009.17
2019-04-04T10:21:50.712Z,1009.08
2019-04-04T10:22:50.718Z,1009.11
2019-04-04T10:23:50.702Z,1009.14
2019-04-04T10:24:50.702Z,1009.12
2019-04-04T10:25:50.697Z,1009.07
2019-04-04T10:26:50.693Z,1009.02
2019-04-04T10:27:50.685Z,1009.01
2019-04-04T10:28:50.686Z,1008.93
2019-04-04T10:29:50.677Z,1008.94
2019-04-04T10:30:50.682Z,1008.93
2019-04-04T10:31:50.674Z,1008.88
2019-04-04T10:32:50.664Z,1008.86
2019-04-04T10:33:50.662Z,1008.84
2019-04-04T10:34:50.661Z,1008.86
2019-04-04T10:35:50.656Z,1008.88
2019-04-04T10:36:50.654Z,1008.94
2019-04-04T10:37:50.646Z,1008.92
2019-04-04T10:38:50.648Z,1008.89
2019-04-04T10:39:50.636Z,1008.92
2019-04-04T10:40:50.636Z,1008.9
2019-04-04T10:41:50.641Z,1008.9
2019-04-04T10:42:50.627Z,1008.95
2019-04-04T10:43:50.619Z,1008.86
2019-04-04T10:44:50.620Z,1008.85
2019-04-04T10:45:50.612Z,1008.96
2019-04-04T10:46:50.607Z,1008.91
2019-04-04T10:47:50.603Z,1008.92
2019-04-04T10:48:50.603Z,1008.88
2019-04-04T10:49:50.600Z,1008.87
2019-04-04T10:50:50.592Z,1008.84
2019-04-04T10:51:50.588Z,1008.87
2019-04-04T10:52:50.585Z,1008.88
2019-04-04T10:53:50.584Z,1008.87
2019-04-04T10:54:50.576Z,1008.9
2019-04-04T10:55:50.572Z,1008.87
2019-04-04T10:56:50.576Z,1008.89
2019-04-04T10:57:50.564Z,1008.92
2019-04-04T10:58:50.564Z,1008.95
2019-04-04T10:59:50.625Z,1008.86
2019-04-04T11:00:50.555Z,1008.95
2019-04-04T11:01:50.547Z,1008.97
2019-04-04T11:02:50.544Z,1008.93
2019-04-04T11:03:50.540Z,1008.88
2019-04-04T11:04:50.539Z,1009.07
2019-04-04T11:05:50.537Z,1009.01
2019-04-04T11:06:50.528Z,1009.03
2019-04-04T11:07:50.525Z,1009.04
2019-04-04T11:08:50.519Z,1008.92
2019-04-04T11:09:50.519Z,1008.94
2019-04-04T11:10:50.511Z,1008.89
2019-04-04T11:11:50.510Z,1008.8
2019-04-04T11:12:50.504Z,1008.87
2019-04-04T11:13:50.503Z,1008.8
2019-04-04T11:14:50.495Z,1008.78
2019-04-04T11:15:50.495Z,1008.79
2019-04-04T11:16:50.487Z,1008.65
2019-04-04T11:17:50.490Z,1008.68
2019-04-04T11:18:50.483Z,1008.69
2019-04-04T11:19:50.480Z,1008.62
2019-04-04T11:20:50.471Z,1008.6
2019-04-04T11:21:50.471Z,1008.61
2019-04-04T11:22:50.463Z,1008.51
2019-04-04T11:23:50.459Z,1008.57
2019-04-04T11:24:50.455Z,1008.58
2019-04-04T11:25:50.457Z,1008.65
2019-04-04T11:26:50.447Z,1008.58
2019-04-04T11:27:50.447Z,1008.62
2019-04-04T11:28:50.439Z,1008.54
2019-04-04T11:29:50.439Z,1008.53
2019-04-04T11:30:50.432Z,1008.53
2019-04-04T11:31:50.434Z,1008.57
2019-04-04T11:32:50.424Z,1008.59
2019-04-04T11:33:50.423Z,1008.69
2019-04-04T11:34:53.241Z,1008.49
2019-04-04T11:35:50.416Z,1008.53
2019-04-04T11:36:50.409Z,1008.47
2019-04-04T11:37:50.406Z,1008.55
2019-04-04T11:38:50.407Z,1008.52
2019-04-04T11:39:54.712Z,1008.69
2019-04-04T11:40:50.401Z,1008.49
2019-04-04T11:41:50.388Z,1008.52
2019-04-04T11:42:50.389Z,1008.58
2019-04-04T11:43:50.382Z,1008.53
2019-04-04T11:44:50.382Z,1008.45
2019-04-04T11:45:50.374Z,1008.56
2019-04-04T11:46:50.375Z,1008.5
2019-04-04T11:47:50.371Z,1008.5
2019-04-04T11:48:50.364Z,1008.5
2019-04-04T11:49:50.366Z,1008.51
2019-04-04T11:50:50.366Z,1008.48
2019-04-04T11:51:50.361Z,1008.47
2019-04-04T11:52:50.351Z,1008.37
2019-04-04T11:53:50.344Z,1008.28
2019-04-04T11:54:50.344Z,1008.29
2019-04-04T11:55:50.341Z,1008.29
2019-04-04T11:56:50.339Z,1008.28
2019-04-04T11:57:50.330Z,1008.19
2019-04-04T11:58:50.331Z,1008.17
2019-04-04T11:59:50.321Z,1008.19
2019-04-04T12:00:50.321Z,1008.13
2019-04-04T12:01:50.314Z,1008.13
2019-04-04T12:02:50.317Z,1008.03
2019-04-04T12:03:50.310Z,1008.12
2019-04-04T12:04:50.314Z,1008.18
2019-04-04T12:05:50.302Z,1008.09
2019-04-04T12:06:50.295Z,1008.08
2019-04-04T12:07:50.293Z,1008.06
2019-04-04T12:08:50.299Z,1008.1
2019-04-04T12:09:50.289Z,1008.04